sensor_id;sensor_type;location;lat;lon;timestamp;pressure;altitude;pressure_sealevel;temperature;humidity
51178;BME280;37243;49.814;8.652;2022-08-19T00:00:43;99851.75;;;29.62;41.09
51178;BME280;37243;49.814;8.652;2022-08-19T00:03:14;99849.81;;;29.63;41.97
51178;BME280;37243;49.814;8.652;2022-08-19T00:05:42;99853.38;;;29.63;41.50
51178;BME280;37243;49.814;8.652;2022-08-19T00:08:11;99855.75;;;29.65;41.54
51178;BME280;37243;49.814;8.652;2022-08-19T00:10:39;99849.81;;;29.63;40.96
51178;BME280;37243;49.814;8.652;2022-08-19T00:13:08;99851.75;;;29.62;41.16
51178;BME280;37243;49.814;8.652;2022-08-19T00:15:36;99839.09;;;29.61;41.25
51178;BME280;37243;49.814;8.652;2022-08-19T00:18:04;99834.38;;;29.62;41.64
51178;BME280;37243;49.814;8.652;2022-08-19T00:20:36;99839.53;;;29.63;41.60
51178;BME280;37243;49.814;8.652;2022-08-19T00:23:05;99831.59;;;29.62;41.52
51178;BME280;37243;49.814;8.652;2022-08-19T00:25:34;99826.88;;;29.62;41.20
51178;BME280;37243;49.814;8.652;2022-08-19T00:28:03;99817.78;;;29.62;41.79
51178;BME280;37243;49.814;8.652;2022-08-19T00:30:31;99812.25;;;29.62;41.43
51178;BME280;37243;49.814;8.652;2022-08-19T00:33:00;99813.44;;;29.61;41.69
51178;BME280;37243;49.814;8.652;2022-08-19T00:35:28;99813.06;;;29.62;41.63
51178;BME280;37243;49.814;8.652;2022-08-19T00:37:59;99813.88;;;29.63;41.90
51178;BME280;37243;49.814;8.652;2022-08-19T00:42:54;99805.91;;;29.61;41.50
51178;BME280;37243;49.814;8.652;2022-08-19T00:45:27;99796.47;;;29.62;41.23
51178;BME280;37243;49.814;8.652;2022-08-19T00:47:59;99806.72;;;29.62;41.53
51178;BME280;37243;49.814;8.652;2022-08-19T00:50:30;99793.69;;;29.62;41.82
51178;BME280;37243;49.814;8.652;2022-08-19T00:53:01;99787.38;;;29.62;41.64
51178;BME280;37243;49.814;8.652;2022-08-19T00:55:30;99778.66;;;29.60;41.51
51178;BME280;37243;49.814;8.652;2022-08-19T00:58:02;99780.59;;;29.59;41.45
51178;BME280;37243;49.814;8.652;2022-08-19T01:00:33;99779.81;;;29.59;41.36
51178;BME280;37243;49.814;8.652;2022-08-19T01:03:03;99790.84;;;29.59;41.63
51178;BME280;37243;49.814;8.652;2022-08-19T01:05:31;99790.84;;;29.59;41.48
51178;BME280;37243;49.814;8.652;2022-08-19T01:08:04;99805.50;;;29.59;41.37
51178;BME280;37243;49.814;8.652;2022-08-19T01:10:37;99800.34;;;29.58;41.16
51178;BME280;37243;49.814;8.652;2022-08-19T01:13:06;99801.09;;;29.58;41.75
51178;BME280;37243;49.814;8.652;2022-08-19T01:15:40;99799.59;;;29.61;41.33
51178;BME280;37243;49.814;8.652;2022-08-19T01:18:11;99797.63;;;29.61;41.39
51178;BME280;37243;49.814;8.652;2022-08-19T01:20:41;99786.94;;;29.60;41.54
51178;BME280;37243;49.814;8.652;2022-08-19T01:23:12;99787.75;;;29.60;41.84
51178;BME280;37243;49.814;8.652;2022-08-19T01:25:42;99791.66;;;29.59;41.53
51178;BME280;37243;49.814;8.652;2022-08-19T01:28:16;99786.22;;;29.63;41.53
51178;BME280;37243;49.814;8.652;2022-08-19T01:30:45;99784.19;;;29.60;41.60
51178;BME280;37243;49.814;8.652;2022-08-19T01:33:15;99785.34;;;29.59;41.71
51178;BME280;37243;49.814;8.652;2022-08-19T01:35:44;99787.75;;;29.60;41.80
51178;BME280;37243;49.814;8.652;2022-08-19T01:38:25;99789.34;;;29.61;41.49
51178;BME280;37243;49.814;8.652;2022-08-19T01:40:56;99805.91;;;29.61;41.92
51178;BME280;37243;49.814;8.652;2022-08-19T01:43:25;99808.25;;;29.59;41.84
51178;BME280;37243;49.814;8.652;2022-08-19T01:45:53;99805.91;;;29.61;41.60
51178;BME280;37243;49.814;8.652;2022-08-19T01:48:21;99804.34;;;29.60;41.41
51178;BME280;37243;49.814;8.652;2022-08-19T01:50:50;99795.25;;;29.60;41.18
51178;BME280;37243;49.814;8.652;2022-08-19T01:53:18;99798.00;;;29.60;41.66
51178;BME280;37243;49.814;8.652;2022-08-19T01:55:49;99816.97;;;29.61;41.32
51178;BME280;37243;49.814;8.652;2022-08-19T01:58:22;99809.06;;;29.60;41.90
51178;BME280;37243;49.814;8.652;2022-08-19T02:00:52;99818.50;;;29.59;41.29
51178;BME280;37243;49.814;8.652;2022-08-19T02:03:20;99803.53;;;29.60;41.44
51178;BME280;37243;49.814;8.652;2022-08-19T02:05:54;99810.66;;;29.61;41.43
51178;BME280;37243;49.814;8.652;2022-08-19T02:08:24;99818.16;;;29.60;41.47
51178;BME280;37243;49.814;8.652;2022-08-19T02:10:55;99820.91;;;29.60;41.05
51178;BME280;37243;49.814;8.652;2022-08-19T02:13:25;99820.91;;;29.60;41.60
51178;BME280;37243;49.814;8.652;2022-08-19T02:15:54;99822.88;;;29.60;41.63
51178;BME280;37243;49.814;8.652;2022-08-19T02:18:23;99814.59;;;29.60;41.55
51178;BME280;37243;49.814;8.652;2022-08-19T02:20:52;99816.53;;;29.59;41.72
51178;BME280;37243;49.814;8.652;2022-08-19T02:23:20;99824.84;;;29.59;41.70
51178;BME280;37243;49.814;8.652;2022-08-19T02:25:49;99830.38;;;29.59;41.63
51178;BME280;37243;49.814;8.652;2022-08-19T02:28:21;99835.91;;;29.59;41.71
51178;BME280;37243;49.814;8.652;2022-08-19T02:30:50;99826.44;;;29.60;41.55
51178;BME280;37243;49.814;8.652;2022-08-19T02:33:18;99829.22;;;29.60;41.98
51178;BME280;37243;49.814;8.652;2022-08-19T02:35:46;99819.31;;;29.59;41.17
51178;BME280;37243;49.814;8.652;2022-08-19T02:38:16;99813.78;;;29.59;41.76
51178;BME280;37243;49.814;8.652;2022-08-19T02:40:56;99806.63;;;29.58;41.74
51178;BME280;37243;49.814;8.652;2022-08-19T02:43:29;99812.16;;;29.58;41.19
51178;BME280;37243;49.814;8.652;2022-08-19T02:45:57;99817.69;;;29.58;41.63
51178;BME280;37243;49.814;8.652;2022-08-19T02:48:26;99822.44;;;29.58;41.60
51178;BME280;37243;49.814;8.652;2022-08-19T02:50:54;99819.69;;;29.58;41.26
51178;BME280;37243;49.814;8.652;2022-08-19T02:53:26;99813.78;;;29.59;42.07
51178;BME280;37243;49.814;8.652;2022-08-19T02:55:54;99808.97;;;29.56;42.05
51178;BME280;37243;49.814;8.652;2022-08-19T02:58:23;99807.81;;;29.57;41.89
51178;BME280;37243;49.814;8.652;2022-08-19T03:00:56;99803.88;;;29.58;41.60
51178;BME280;37243;49.814;8.652;2022-08-19T03:03:25;99823.22;;;29.58;41.92
51178;BME280;37243;49.814;8.652;2022-08-19T03:06:03;99827.19;;;29.57;41.63
51178;BME280;37243;49.814;8.652;2022-08-19T03:08:32;99826.38;;;29.57;41.37
51178;BME280;37243;49.814;8.652;2022-08-19T03:11:00;99827.19;;;29.57;41.17
51178;BME280;37243;49.814;8.652;2022-08-19T03:13:29;99832.69;;;29.57;41.42
51178;BME280;37243;49.814;8.652;2022-08-19T03:16:04;99839.38;;;29.56;41.52
51178;BME280;37243;49.814;8.652;2022-08-19T03:18:32;99838.22;;;29.57;41.18
51178;BME280;37243;49.814;8.652;2022-08-19T03:21:01;99831.47;;;29.55;41.22
51178;BME280;37243;49.814;8.652;2022-08-19T03:23:29;99826.28;;;29.53;41.76
51178;BME280;37243;49.814;8.652;2022-08-19T03:25:57;99829.06;;;29.53;41.80
51178;BME280;37243;49.814;8.652;2022-08-19T03:28:26;99824.31;;;29.54;41.74
51178;BME280;37243;49.814;8.652;2022-08-19T03:30:56;99819.59;;;29.54;42.06
51178;BME280;37243;49.814;8.652;2022-08-19T03:33:29;99818.78;;;29.54;41.18
51178;BME280;37243;49.814;8.652;2022-08-19T03:36:06;99821.56;;;29.54;41.84
51178;BME280;37243;49.814;8.652;2022-08-19T03:38:36;99820.75;;;29.53;42.00
51178;BME280;37243;49.814;8.652;2022-08-19T03:41:07;99827.91;;;29.54;41.74
51178;BME280;37243;49.814;8.652;2022-08-19T03:43:37;99822.38;;;29.54;41.83
51178;BME280;37243;49.814;8.652;2022-08-19T03:46:09;99825.47;;;29.53;42.16
51178;BME280;37243;49.814;8.652;2022-08-19T03:48:41;99831.00;;;29.53;41.57
51178;BME280;37243;49.814;8.652;2022-08-19T03:51:17;99840.47;;;29.52;41.41
51178;BME280;37243;49.814;8.652;2022-08-19T03:53:46;99845.19;;;29.51;42.04
51178;BME280;37243;49.814;8.652;2022-08-19T03:56:15;99848.41;;;29.53;41.24
51178;BME280;37243;49.814;8.652;2022-08-19T03:58:44;99844.06;;;29.52;41.60
51178;BME280;37243;49.814;8.652;2022-08-19T04:01:14;99838.53;;;29.52;41.41
51178;BME280;37243;49.814;8.652;2022-08-19T04:03:47;99841.28;;;29.52;41.69
51178;BME280;37243;49.814;8.652;2022-08-19T04:06:18;99838.88;;;29.51;41.78
51178;BME280;37243;49.814;8.652;2022-08-19T04:08:48;99852.34;;;29.52;41.99
51178;BME280;37243;49.814;8.652;2022-08-19T04:11:19;99856.25;;;29.51;41.77
51178;BME280;37243;49.814;8.652;2022-08-19T04:13:48;99847.16;;;29.51;41.50
51178;BME280;37243;49.814;8.652;2022-08-19T04:16:17;99847.16;;;29.51;42.21
51178;BME280;37243;49.814;8.652;2022-08-19T04:18:48;99842.00;;;29.49;41.71
51178;BME280;37243;49.814;8.652;2022-08-19T04:21:20;99841.63;;;29.51;41.98
51178;BME280;37243;49.814;8.652;2022-08-19T04:23:48;99847.53;;;29.49;41.98
51178;BME280;37243;49.814;8.652;2022-08-19T04:26:19;99839.69;;;29.51;41.75
51178;BME280;37243;49.814;8.652;2022-08-19T04:28:49;99833.72;;;29.49;41.36
51178;BME280;37243;49.814;8.652;2022-08-19T04:31:19;99841.19;;;29.49;41.60
51178;BME280;37243;49.814;8.652;2022-08-19T04:33:54;99829.34;;;29.48;41.86
51178;BME280;37243;49.814;8.652;2022-08-19T04:36:25;99842.00;;;29.49;41.81
51178;BME280;37243;49.814;8.652;2022-08-19T04:38:56;99844.78;;;29.49;41.78
51178;BME280;37243;49.814;8.652;2022-08-19T04:41:25;99845.19;;;29.51;41.62
51178;BME280;37243;49.814;8.652;2022-08-19T04:44:06;99845.53;;;29.50;42.00
51178;BME280;37243;49.814;8.652;2022-08-19T04:46:34;99842.78;;;29.50;41.64
51178;BME280;37243;49.814;8.652;2022-08-19T04:49:06;99838.06;;;29.50;41.64
51178;BME280;37243;49.814;8.652;2022-08-19T04:51:35;99845.53;;;29.50;41.31
51178;BME280;37243;49.814;8.652;2022-08-19T04:54:04;99853.06;;;29.49;41.74
51178;BME280;37243;49.814;8.652;2022-08-19T04:56:32;99842.00;;;29.49;41.78
51178;BME280;37243;49.814;8.652;2022-08-19T04:59:01;99848.31;;;29.50;42.01
51178;BME280;37243;49.814;8.652;2022-08-19T05:01:33;99848.31;;;29.50;41.63
51178;BME280;37243;49.814;8.652;2022-08-19T05:04:06;99842.00;;;29.49;41.79
51178;BME280;37243;49.814;8.652;2022-08-19T05:06:36;99847.53;;;29.49;41.89
51178;BME280;37243;49.814;8.652;2022-08-19T05:09:05;99853.84;;;29.50;42.04
51178;BME280;37243;49.814;8.652;2022-08-19T05:11:35;99860.16;;;29.50;41.94
51178;BME280;37243;49.814;8.652;2022-08-19T05:14:05;99854.66;;;29.50;41.90
51178;BME280;37243;49.814;8.652;2022-08-19T05:16:33;99858.59;;;29.49;41.73
51178;BME280;37243;49.814;8.652;2022-08-19T05:19:01;99862.50;;;29.48;41.67
51178;BME280;37243;49.814;8.652;2022-08-19T05:21:45;99865.63;;;29.47;41.93
51178;BME280;37243;49.814;8.652;2022-08-19T05:24:27;99857.69;;;29.45;41.52
51178;BME280;37243;49.814;8.652;2022-08-19T05:26:56;99859.75;;;29.48;41.46
51178;BME280;37243;49.814;8.652;2022-08-19T05:29:27;99865.63;;;29.47;41.84
51178;BME280;37243;49.814;8.652;2022-08-19T05:31:57;99866.41;;;29.47;41.92
51178;BME280;37243;49.814;8.652;2022-08-19T05:34:26;99875.91;;;29.46;41.71
51178;BME280;37243;49.814;8.652;2022-08-19T05:37:01;99870.81;;;29.48;41.56
51178;BME280;37243;49.814;8.652;2022-08-19T05:39:32;99878.72;;;29.50;41.57
51178;BME280;37243;49.814;8.652;2022-08-19T05:42:03;99866.06;;;29.49;42.06
51178;BME280;37243;49.814;8.652;2022-08-19T05:44:34;99870.44;;;29.50;42.05
51178;BME280;37243;49.814;8.652;2022-08-19T05:47:05;99877.94;;;29.49;41.78
51178;BME280;37243;49.814;8.652;2022-08-19T05:49:35;99878.38;;;29.51;42.00
51178;BME280;37243;49.814;8.652;2022-08-19T05:52:09;99883.09;;;29.51;42.08
51178;BME280;37243;49.814;8.652;2022-08-19T05:54:39;99894.16;;;29.51;41.81
51178;BME280;37243;49.814;8.652;2022-08-19T05:57:08;99888.63;;;29.51;41.63
51178;BME280;37243;49.814;8.652;2022-08-19T05:59:37;99892.63;;;29.53;41.78
51178;BME280;37243;49.814;8.652;2022-08-19T06:02:06;99893.34;;;29.50;42.18
51178;BME280;37243;49.814;8.652;2022-08-19T06:04:34;99896.91;;;29.51;41.54
51178;BME280;37243;49.814;8.652;2022-08-19T06:07:07;99898.88;;;29.50;41.14
51178;BME280;37243;49.814;8.652;2022-08-19T06:09:35;99902.81;;;29.49;41.69
51178;BME280;37243;49.814;8.652;2022-08-19T06:12:04;99904.84;;;29.52;41.67
51178;BME280;37243;49.814;8.652;2022-08-19T06:14:34;99919.84;;;29.51;41.80
51178;BME280;37243;49.814;8.652;2022-08-19T06:17:03;99917.06;;;29.51;41.71
51178;BME280;37243;49.814;8.652;2022-08-19T06:19:31;99932.50;;;29.52;41.65
51178;BME280;37243;49.814;8.652;2022-08-19T06:22:00;99922.69;;;29.55;41.25
51178;BME280;37243;49.814;8.652;2022-08-19T06:24:31;99923.84;;;29.54;41.09
51178;BME280;37243;49.814;8.652;2022-08-19T06:27:01;99934.09;;;29.53;41.66
51178;BME280;37243;49.814;8.652;2022-08-19T06:29:30;99941.56;;;29.53;41.47
51178;BME280;37243;49.814;8.652;2022-08-19T06:32:02;99944.00;;;29.54;40.99
51178;BME280;37243;49.814;8.652;2022-08-19T06:34:33;99944.00;;;29.54;41.66
51178;BME280;37243;49.814;8.652;2022-08-19T06:37:02;99937.75;;;29.57;41.50
51178;BME280;37243;49.814;8.652;2022-08-19T06:39:35;99942.03;;;29.55;41.21
51178;BME280;37243;49.814;8.652;2022-08-19T06:44:32;99938.56;;;29.58;41.18
51178;BME280;37243;49.814;8.652;2022-08-19T06:47:03;99945.22;;;29.57;41.02
51178;BME280;37243;49.814;8.652;2022-08-19T06:49:31;99948.81;;;29.57;41.53
51178;BME280;37243;49.814;8.652;2022-08-19T06:52:00;99947.63;;;29.58;41.08
51178;BME280;37243;49.814;8.652;2022-08-19T06:54:29;99944.84;;;29.58;41.51
51178;BME280;37243;49.814;8.652;2022-08-19T06:57:00;99949.59;;;29.58;40.97
51178;BME280;37243;49.814;8.652;2022-08-19T06:59:31;99954.75;;;29.59;41.47
51178;BME280;37243;49.814;8.652;2022-08-19T07:02:02;99949.22;;;29.59;41.18
51178;BME280;37243;49.814;8.652;2022-08-19T07:04:34;99953.63;;;29.60;41.15
51178;BME280;37243;49.814;8.652;2022-08-19T07:07:06;99965.47;;;29.61;41.85
51178;BME280;37243;49.814;8.652;2022-08-19T07:09:36;99961.91;;;29.60;41.04
51178;BME280;37243;49.814;8.652;2022-08-19T07:12:11;99967.06;;;29.62;41.85
51178;BME280;37243;49.814;8.652;2022-08-19T07:14:41;99962.34;;;29.62;41.22
51178;BME280;37243;49.814;8.652;2022-08-19T07:17:11;99962.34;;;29.62;41.62
51178;BME280;37243;49.814;8.652;2022-08-19T07:19:40;99954.03;;;29.62;40.97
51178;BME280;37243;49.814;8.652;2022-08-19T07:22:09;99957.63;;;29.63;41.39
51178;BME280;37243;49.814;8.652;2022-08-19T07:24:39;99957.63;;;29.63;41.48
51178;BME280;37243;49.814;8.652;2022-08-19T07:27:09;99954.84;;;29.63;41.22
51178;BME280;37243;49.814;8.652;2022-08-19T07:29:38;99954.47;;;29.64;41.14
51178;BME280;37243;49.814;8.652;2022-08-19T07:32:06;99957.25;;;29.64;41.19
51178;BME280;37243;49.814;8.652;2022-08-19T07:34:36;99956.09;;;29.65;41.67
51178;BME280;37243;49.814;8.652;2022-08-19T07:37:05;99961.25;;;29.67;41.12
51178;BME280;37243;49.814;8.652;2022-08-19T07:39:35;99956.09;;;29.65;41.41
51178;BME280;37243;49.814;8.652;2022-08-19T07:42:09;99950.66;;;29.69;40.98
51178;BME280;37243;49.814;8.652;2022-08-19T07:44:39;99961.72;;;29.69;41.09
51178;BME280;37243;49.814;8.652;2022-08-19T07:47:08;99957.00;;;29.69;40.65
51178;BME280;37243;49.814;8.652;2022-08-19T07:49:37;99965.28;;;29.69;40.90
51178;BME280;37243;49.814;8.652;2022-08-19T07:52:08;99963.28;;;29.70;41.05
51178;BME280;37243;49.814;8.652;2022-08-19T07:54:39;99954.66;;;29.71;41.62
51178;BME280;37243;49.814;8.652;2022-08-19T07:57:10;99961.78;;;29.72;41.18
51178;BME280;37243;49.814;8.652;2022-08-19T07:59:38;99956.28;;;29.72;41.29
51178;BME280;37243;49.814;8.652;2022-08-19T08:02:08;99957.84;;;29.73;40.99
51178;BME280;37243;49.814;8.652;2022-08-19T08:04:36;99957.03;;;29.73;41.51
51178;BME280;37243;49.814;8.652;2022-08-19T08:07:17;99953.13;;;29.74;41.24
51178;BME280;37243;49.814;8.652;2022-08-19T08:09:58;99957.13;;;29.76;41.37
51178;BME280;37243;49.814;8.652;2022-08-19T08:12:32;99953.22;;;29.77;41.12
51178;BME280;37243;49.814;8.652;2022-08-19T08:15:08;99956.41;;;29.79;40.77
51178;BME280;37243;49.814;8.652;2022-08-19T08:17:36;99948.13;;;29.79;40.95
51178;BME280;37243;49.814;8.652;2022-08-19T08:20:06;99958.06;;;29.80;40.74
51178;BME280;37243;49.814;8.652;2022-08-19T08:22:34;99959.97;;;29.80;40.76
51178;BME280;37243;49.814;8.652;2022-08-19T08:25:19;99948.91;;;29.80;41.27
51178;BME280;37243;49.814;8.652;2022-08-19T08:27:50;99952.16;;;29.82;40.46
51178;BME280;37243;49.814;8.652;2022-08-19T08:30:21;99950.19;;;29.83;41.03
51178;BME280;37243;49.814;8.652;2022-08-19T08:32:50;99952.97;;;29.83;41.00
51178;BME280;37243;49.814;8.652;2022-08-19T08:35:23;99944.66;;;29.83;40.50
51178;BME280;37243;49.814;8.652;2022-08-19T08:37:53;99957.34;;;29.84;40.56
51178;BME280;37243;49.814;8.652;2022-08-19T08:40:28;99953.38;;;29.85;41.11
51178;BME280;37243;49.814;8.652;2022-08-19T08:43:09;99949.47;;;29.86;40.59
51178;BME280;37243;49.814;8.652;2022-08-19T08:45:44;99952.25;;;29.86;40.81
51178;BME280;37243;49.814;8.652;2022-08-19T08:48:24;99952.66;;;29.88;40.93
51178;BME280;37243;49.814;8.652;2022-08-19T08:50:54;99951.84;;;29.87;40.39
51178;BME280;37243;49.814;8.652;2022-08-19T08:53:25;99947.13;;;29.88;40.40
51178;BME280;37243;49.814;8.652;2022-08-19T08:55:53;99938.84;;;29.88;40.14
51178;BME280;37243;49.814;8.652;2022-08-19T08:58:30;99947.13;;;29.88;40.66
51178;BME280;37243;49.814;8.652;2022-08-19T09:01:05;99948.75;;;29.89;40.69
51178;BME280;37243;49.814;8.652;2022-08-19T09:03:33;99948.75;;;29.89;40.33
51178;BME280;37243;49.814;8.652;2022-08-19T09:06:04;99954.72;;;29.91;40.77
51178;BME280;37243;49.814;8.652;2022-08-19T09:08:40;99943.22;;;29.89;40.43
51178;BME280;37243;49.814;8.652;2022-08-19T09:14:10;99954.72;;;29.91;40.95
51178;BME280;37243;49.814;8.652;2022-08-19T09:16:41;99950.38;;;29.90;40.64
51178;BME280;37243;49.814;8.652;2022-08-19T09:19:09;99951.94;;;29.91;40.15
51178;BME280;37243;49.814;8.652;2022-08-19T09:21:38;99959.09;;;29.92;40.54
51178;BME280;37243;49.814;8.652;2022-08-19T09:24:06;99954.72;;;29.91;40.50
51178;BME280;37243;49.814;8.652;2022-08-19T09:26:35;99956.31;;;29.92;40.94
51178;BME280;37243;49.814;8.652;2022-08-19T09:29:06;99952.75;;;29.91;40.59
51178;BME280;37243;49.814;8.652;2022-08-19T09:31:35;99951.59;;;29.92;40.46
51178;BME280;37243;49.814;8.652;2022-08-19T09:34:03;99949.63;;;29.93;40.37
51178;BME280;37243;49.814;8.652;2022-08-19T09:36:33;99944.09;;;29.93;40.04
51178;BME280;37243;49.814;8.652;2022-08-19T09:39:05;99944.88;;;29.93;40.48
51178;BME280;37243;49.814;8.652;2022-08-19T09:41:33;99944.88;;;29.93;40.43
51178;BME280;37243;49.814;8.652;2022-08-19T09:44:02;99944.88;;;29.93;40.93
51178;BME280;37243;49.814;8.652;2022-08-19T09:46:33;99942.94;;;29.94;40.54
51178;BME280;37243;49.814;8.652;2022-08-19T09:49:02;99938.56;;;29.93;40.16
51178;BME280;37243;49.814;8.652;2022-08-19T09:51:32;99945.69;;;29.94;40.37
51178;BME280;37243;49.814;8.652;2022-08-19T09:54:02;99947.31;;;29.95;40.60
51178;BME280;37243;49.814;8.652;2022-08-19T09:56:31;99946.50;;;29.94;40.61
51178;BME280;37243;49.814;8.652;2022-08-19T09:59:01;99940.16;;;29.94;40.78
51178;BME280;37243;49.814;8.652;2022-08-19T10:01:33;99941.78;;;29.95;40.43
51178;BME280;37243;49.814;8.652;2022-08-19T10:04:02;99937.03;;;29.95;40.36
51178;BME280;37243;49.814;8.652;2022-08-19T10:06:35;99945.34;;;29.95;40.58
51178;BME280;37243;49.814;8.652;2022-08-19T10:09:04;99942.56;;;29.95;40.16
51178;BME280;37243;49.814;8.652;2022-08-19T10:11:33;99941.78;;;29.95;40.67
51178;BME280;37243;49.814;8.652;2022-08-19T10:14:03;99948.91;;;29.96;40.20
51178;BME280;37243;49.814;8.652;2022-08-19T10:16:36;99947.31;;;29.95;39.99
51178;BME280;37243;49.814;8.652;2022-08-19T10:19:06;99947.31;;;29.95;40.15
51178;BME280;37243;49.814;8.652;2022-08-19T10:21:35;99944.97;;;29.97;40.69
51178;BME280;37243;49.814;8.652;2022-08-19T10:24:05;99948.91;;;29.96;40.00
51178;BME280;37243;49.814;8.652;2022-08-19T10:26:38;99946.16;;;29.96;40.33
51178;BME280;37243;49.814;8.652;2022-08-19T10:29:07;99939.00;;;29.95;40.55
51178;BME280;37243;49.814;8.652;2022-08-19T10:31:39;99940.63;;;29.96;39.97
51178;BME280;37243;49.814;8.652;2022-08-19T10:34:08;99946.16;;;29.96;40.97
51178;BME280;37243;49.814;8.652;2022-08-19T10:36:36;99938.63;;;29.96;40.99
51178;BME280;37243;49.814;8.652;2022-08-19T10:39:08;99939.44;;;29.97;40.33
51178;BME280;37243;49.814;8.652;2022-08-19T10:41:39;99935.88;;;29.96;40.29
51178;BME280;37243;49.814;8.652;2022-08-19T10:44:11;99939.44;;;29.97;40.51
51178;BME280;37243;49.814;8.652;2022-08-19T10:46:44;99932.75;;;29.98;40.06
51178;BME280;37243;49.814;8.652;2022-08-19T10:49:13;99935.50;;;29.98;40.60
51178;BME280;37243;49.814;8.652;2022-08-19T10:51:42;99932.75;;;29.98;40.36
51178;BME280;37243;49.814;8.652;2022-08-19T10:54:23;99934.72;;;29.97;40.44
51178;BME280;37243;49.814;8.652;2022-08-19T10:57:12;99921.69;;;29.98;40.25
51178;BME280;37243;49.814;8.652;2022-08-19T10:59:38;99913.38;;;29.98;39.89
51178;BME280;37243;49.814;8.652;2022-08-19T11:02:10;99912.19;;;29.99;40.51
51178;BME280;37243;49.814;8.652;2022-08-19T11:04:39;99909.44;;;29.99;40.46
51178;BME280;37243;49.814;8.652;2022-08-19T11:07:08;99901.13;;;29.99;40.36
51178;BME280;37243;49.814;8.652;2022-08-19T11:09:39;99905.53;;;30.00;40.29
51178;BME280;37243;49.814;8.652;2022-08-19T11:12:08;99905.53;;;30.00;40.63
51178;BME280;37243;49.814;8.652;2022-08-19T11:14:37;99909.44;;;29.99;40.33
51178;BME280;37243;49.814;8.652;2022-08-19T11:17:08;99892.84;;;29.99;39.86
51178;BME280;37243;49.814;8.652;2022-08-19T11:19:39;99890.06;;;29.99;40.23
51178;BME280;37243;49.814;8.652;2022-08-19T11:22:08;99881.78;;;29.99;40.32
51178;BME280;37243;49.814;8.652;2022-08-19T11:24:37;99883.03;;;30.01;40.23
51178;BME280;37243;49.814;8.652;2022-08-19T11:27:07;99881.03;;;30.02;40.04
51178;BME280;37243;49.814;8.652;2022-08-19T11:29:39;99875.50;;;30.02;40.41
51178;BME280;37243;49.814;8.652;2022-08-19T11:32:10;99864.44;;;30.02;40.59
51178;BME280;37243;49.814;8.652;2022-08-19T11:34:40;99876.69;;;30.01;39.96
51178;BME280;37243;49.814;8.652;2022-08-19T11:37:08;99872.75;;;30.02;40.39
51178;BME280;37243;49.814;8.652;2022-08-19T11:39:37;99876.31;;;30.02;40.32
51178;BME280;37243;49.814;8.652;2022-08-19T11:42:07;99885.44;;;30.03;40.13
51178;BME280;37243;49.814;8.652;2022-08-19T11:44:47;99884.63;;;30.02;40.66
51178;BME280;37243;49.814;8.652;2022-08-19T11:47:19;99884.63;;;30.02;40.23
51178;BME280;37243;49.814;8.652;2022-08-19T11:49:47;99865.25;;;30.02;40.32
51178;BME280;37243;49.814;8.652;2022-08-19T11:52:16;99857.75;;;30.03;40.41
51178;BME280;37243;49.814;8.652;2022-08-19T11:54:44;99853.38;;;30.02;40.84
51178;BME280;37243;49.814;8.652;2022-08-19T11:57:13;99860.53;;;30.03;40.38
51178;BME280;37243;49.814;8.652;2022-08-19T11:59:42;99844.75;;;30.03;40.35
51178;BME280;37243;49.814;8.652;2022-08-19T12:02:10;99866.06;;;30.03;39.96
51178;BME280;37243;49.814;8.652;2022-08-19T12:04:43;99857.75;;;30.03;40.35
51178;BME280;37243;49.814;8.652;2022-08-19T12:07:11;99863.28;;;30.03;40.46
51178;BME280;37243;49.814;8.652;2022-08-19T12:09:39;99867.69;;;30.04;40.28
51178;BME280;37243;49.814;8.652;2022-08-19T12:12:08;99864.09;;;30.03;40.73
51178;BME280;37243;49.814;8.652;2022-08-19T12:14:36;99869.25;;;30.05;40.37
51178;BME280;37243;49.814;8.652;2022-08-19T12:17:05;99874.78;;;30.05;40.15
51178;BME280;37243;49.814;8.652;2022-08-19T12:19:36;99862.94;;;30.04;39.72
51178;BME280;37243;49.814;8.652;2022-08-19T12:22:07;99852.66;;;30.05;39.66
51178;BME280;37243;49.814;8.652;2022-08-19T12:24:35;99849.13;;;30.04;39.70
51178;BME280;37243;49.814;8.652;2022-08-19T12:27:04;99846.34;;;30.04;40.16
51178;BME280;37243;49.814;8.652;2022-08-19T12:29:32;99849.91;;;30.05;40.43
51178;BME280;37243;49.814;8.652;2022-08-19T12:32:00;99847.13;;;30.05;40.72
51178;BME280;37243;49.814;8.652;2022-08-19T12:34:30;99842.78;;;30.04;40.03
51178;BME280;37243;49.814;8.652;2022-08-19T12:37:01;99859.81;;;30.06;40.10
51178;BME280;37243;49.814;8.652;2022-08-19T12:39:34;99847.94;;;30.05;40.03
51178;BME280;37243;49.814;8.652;2022-08-19T12:42:03;99849.91;;;30.05;39.67
51178;BME280;37243;49.814;8.652;2022-08-19T12:44:34;99854.28;;;30.06;39.88
51178;BME280;37243;49.814;8.652;2022-08-19T12:47:02;99856.22;;;30.05;40.12
51178;BME280;37243;49.814;8.652;2022-08-19T12:49:31;99855.88;;;30.07;39.87
51178;BME280;37243;49.814;8.652;2022-08-19T12:52:00;99844.00;;;30.06;39.64
51178;BME280;37243;49.814;8.652;2022-08-19T12:54:31;99844.81;;;30.07;40.25
51178;BME280;37243;49.814;8.652;2022-08-19T12:57:00;99851.50;;;30.06;40.25
51178;BME280;37243;49.814;8.652;2022-08-19T12:59:28;99855.06;;;30.06;39.82
51178;BME280;37243;49.814;8.652;2022-08-19T13:01:57;99856.22;;;30.05;40.16
51178;BME280;37243;49.814;8.652;2022-08-19T13:04:25;99859.41;;;30.07;39.75
51178;BME280;37243;49.814;8.652;2022-08-19T13:06:53;99855.88;;;30.07;40.37
51178;BME280;37243;49.814;8.652;2022-08-19T13:09:22;99857.47;;;30.08;40.44
51178;BME280;37243;49.814;8.652;2022-08-19T13:11:52;99864.97;;;30.07;39.71
51178;BME280;37243;49.814;8.652;2022-08-19T13:14:22;99863.38;;;30.06;39.66
51178;BME280;37243;49.814;8.652;2022-08-19T13:16:50;99865.34;;;30.06;39.75
51178;BME280;37243;49.814;8.652;2022-08-19T13:19:18;99866.94;;;30.07;40.08
51178;BME280;37243;49.814;8.652;2022-08-19T13:21:50;99869.72;;;30.07;40.12
51178;BME280;37243;49.814;8.652;2022-08-19T13:24:19;99867.72;;;30.07;40.25